createdAt,value
2023-04-14T00:03:54.377Z,101052.66
2023-04-14T00:08:59.285Z,101067.59
2023-04-14T00:14:03.294Z,101048.69
2023-04-14T00:19:06.610Z,101052.84
2023-04-14T00:24:11.416Z,101043.72
2023-04-14T00:29:14.636Z,101045.25
2023-04-14T00:34:17.799Z,101051.56
2023-04-14T00:39:22.903Z,101032.13
2023-04-14T00:44:26.544Z,101017.56
2023-04-14T00:49:30.187Z,101018.66
2023-04-14T00:54:36.485Z,101012.56
2023-04-14T00:59:39.784Z,101021.88
2023-04-14T01:04:53.771Z,101020.13
2023-04-14T01:10:01.230Z,101022.00
2023-04-14T01:15:13.351Z,101040.72
2023-04-14T01:20:24.348Z,101029.06
2023-04-14T01:26:11.940Z,101016.66
2023-04-14T01:31:26.752Z,101010.75
2023-04-14T01:36:38.915Z,101013.84
2023-04-14T01:41:48.372Z,101009.22
2023-04-14T01:46:57.727Z,101006.31
2023-04-14T01:52:02.318Z,100993.91
2023-04-14T01:57:08.228Z,101010.03
2023-04-14T02:02:15.283Z,101014.25
2023-04-14T02:07:20.798Z,101000.16
2023-04-14T02:12:27.995Z,101014.13
2023-04-14T02:17:33.774Z,101011.53
2023-04-14T02:22:37.512Z,101011.47
2023-04-14T02:27:47.498Z,100991.13
2023-04-14T02:33:03.189Z,100970.53
2023-04-14T02:38:09.696Z,100969.50
2023-04-14T02:43:15.524Z,100968.28
2023-04-14T02:48:22.756Z,100963.16
2023-04-14T02:53:29.448Z,100958.06
2023-04-14T02:58:33.285Z,100957.06
2023-04-14T03:03:38.822Z,100960.50
2023-04-14T03:08:42.590Z,100962.34
2023-04-14T03:13:46.947Z,100946.19
2023-04-14T03:18:54.578Z,100947.78
2023-04-14T03:23:58.855Z,100944.84
2023-04-14T03:29:04.911Z,100932.97
2023-04-14T03:34:10.866Z,100939.09
2023-04-14T03:39:14.996Z,100941.13
2023-04-14T03:44:19.827Z,100944.53
2023-04-14T03:49:25.453Z,100943.03
2023-04-14T03:54:32.533Z,100922.44
2023-04-14T03:59:37.865Z,100929.53
2023-04-14T04:04:43.535Z,100920.38
2023-04-14T04:09:48.644Z,100910.50
2023-04-14T04:14:51.500Z,100925.59
2023-04-14T04:19:58.666Z,100916.25
2023-04-14T04:25:02.202Z,100911.72
2023-04-14T04:30:09.304Z,100905.69
2023-04-14T04:35:14.377Z,100906.00
2023-04-14T04:40:17.502Z,100907.91
2023-04-14T04:45:37.827Z,100904.16
2023-04-14T04:50:42.843Z,100909.25
2023-04-14T04:55:46.196Z,100907.53
2023-04-14T05:00:49.364Z,100903.41
2023-04-14T05:05:53.856Z,100903.41
2023-04-14T05:10:57.002Z,100906.94
2023-04-14T05:16:05.035Z,100894.31
2023-04-14T05:21:11.575Z,100895.63
2023-04-14T05:26:38.891Z,100887.50
2023-04-14T05:31:38.461Z,100884.69
2023-04-14T05:36:43.469Z,100894.22
2023-04-14T05:41:46.519Z,100886.72
2023-04-14T05:46:49.820Z,100880.06
2023-04-14T05:51:56.247Z,100876.13
2023-04-14T05:56:59.608Z,100878.53
2023-04-14T06:02:06.902Z,100893.63
2023-04-14T06:07:14.569Z,100906.34
2023-04-14T06:12:17.816Z,100896.72
2023-04-14T06:17:22.443Z,100895.84
2023-04-14T06:22:29.522Z,100890.75
2023-04-14T06:27:33.834Z,100891.50
2023-04-14T06:32:38.033Z,100888.59
2023-04-14T06:37:42.924Z,100895.41
2023-04-14T06:42:46.172Z,100911.28
2023-04-14T06:47:49.497Z,100918.09
2023-04-14T06:52:55.013Z,100941.97
2023-04-14T06:57:58.255Z,100944.06
2023-04-14T07:03:01.622Z,100944.91
2023-04-14T07:08:08.863Z,100939.69
2023-04-14T07:13:12.051Z,100951.06
2023-04-14T07:18:15.463Z,100947.31
2023-04-14T07:23:20.097Z,100932.34
2023-04-14T07:28:25.225Z,100936.25
2023-04-14T07:33:32.208Z,100938.63
2023-04-14T07:38:37.576Z,100950.75
2023-04-14T07:43:41.715Z,100931.31
2023-04-14T07:48:44.850Z,100950.31
2023-04-14T07:53:50.178Z,100951.19
2023-04-14T07:58:53.882Z,100950.31
2023-04-14T08:03:57.894Z,100943.41
2023-04-14T08:09:03.543Z,100953.81
2023-04-14T08:14:06.897Z,100954.47
2023-04-14T08:19:10.052Z,100948.31
2023-04-14T08:24:14.613Z,100960.97
2023-04-14T08:29:17.738Z,100952.53
2023-04-14T08:34:28.282Z,100947.53
2023-04-14T08:39:33.401Z,100958.22
2023-04-14T08:44:37.508Z,100951.63
2023-04-14T08:49:42.977Z,100938.69
2023-04-14T08:54:50.171Z,100938.88
2023-04-14T08:59:53.859Z,100947.22
2023-04-14T09:04:58.740Z,100952.84
2023-04-14T09:10:03.997Z,100964.28
2023-04-14T09:15:08.456Z,100977.19
2023-04-14T09:20:34.768Z,100962.41
2023-04-14T09:25:39.075Z,100970.59
2023-04-14T09:30:43.300Z,100990.13
2023-04-14T09:35:48.636Z,100996.94
2023-04-14T09:40:54.913Z,100988.13
2023-04-14T09:46:05.466Z,101009.72
2023-04-14T09:51:10.771Z,101008.00
2023-04-14T09:56:16.002Z,101014.31
2023-04-14T10:01:21.444Z,101014.72
2023-04-14T10:06:26.914Z,101023.38
2023-04-14T10:11:32.807Z,101015.91
2023-04-14T10:16:36.330Z,101027.63
2023-04-14T10:21:39.573Z,101015.56
2023-04-14T10:26:47.310Z,101008.00
2023-04-14T10:31:55.118Z,101013.53
2023-04-14T10:37:13.291Z,101020.69
2023-04-14T10:42:17.888Z,101025.44
2023-04-14T10:47:25.317Z,101024.03
2023-04-14T10:52:34.820Z,101033.38
2023-04-14T10:57:44.913Z,101026.09
2023-04-14T11:02:57.224Z,101024.97
2023-04-14T11:08:03.227Z,101022.22
2023-04-14T11:13:13.099Z,101013.94
2023-04-14T11:18:17.989Z,101013.84
2023-04-14T11:23:28.337Z,101002.16
2023-04-14T11:28:34.543Z,101003.00
2023-04-14T11:33:39.941Z,100971.63
2023-04-14T11:38:44.110Z,100985.63
2023-04-14T11:43:49.054Z,100983.88
2023-04-14T11:48:56.349Z,100991.69
2023-04-14T11:54:00.869Z,100986.69
2023-04-14T11:59:06.795Z,100981.44
2023-04-14T12:04:10.717Z,100980.09
2023-04-14T12:09:13.939Z,100976.19
2023-04-14T12:14:20.162Z,100983.34
2023-04-14T12:19:23.339Z,100971.47
2023-04-14T12:24:34.127Z,100982.78
2023-04-14T12:29:38.990Z,100977.78
2023-04-14T12:34:41.864Z,100973.34
2023-04-14T12:39:52.006Z,100981.75
2023-04-14T12:44:57.915Z,100982.38
2023-04-14T12:50:02.569Z,100969.34
2023-04-14T12:55:06.830Z,100985.56
2023-04-14T13:00:12.919Z,100974.41
2023-04-14T13:05:16.112Z,100965.22
2023-04-14T13:10:19.323Z,100970.84
2023-04-14T13:16:09.760Z,100963.25
2023-04-14T13:20:54.041Z,100964.66
2023-04-14T13:25:57.564Z,100969.03
2023-04-14T13:31:02.053Z,100963.47
2023-04-14T13:36:05.621Z,100938.72
2023-04-14T13:41:08.838Z,100942.44
2023-04-14T13:46:13.479Z,100943.28
2023-04-14T13:51:16.411Z,100931.06
2023-04-14T13:56:22.781Z,100932.53
2023-04-14T14:01:27.599Z,100940.38
2023-04-14T14:06:31.411Z,100946.88
2023-04-14T14:11:34.757Z,100953.31
2023-04-14T14:16:39.389Z,100960.06
2023-04-14T14:21:44.081Z,100954.75
2023-04-14T14:26:47.242Z,100960.31
2023-04-14T14:31:51.860Z,100948.19
2023-04-14T14:36:55.395Z,100955.53
2023-04-14T14:41:58.682Z,100947.25
2023-04-14T14:47:03.421Z,100934.91
2023-04-14T14:52:07.389Z,100935.28
2023-04-14T14:57:10.449Z,100928.19
2023-04-14T15:02:15.198Z,100928.28
2023-04-14T15:07:19.355Z,100925.31
2023-04-14T15:12:24.628Z,100928.91
2023-04-14T15:17:32.193Z,100923.34
2023-04-14T15:22:36.790Z,100924.38
2023-04-14T15:27:40.984Z,100923.03
2023-04-14T15:32:47.064Z,100925.00
2023-04-14T15:37:50.458Z,100924.13
2023-04-14T15:42:54.397Z,100925.97
2023-04-14T15:47:58.979Z,100924.44
2023-04-14T15:53:02.111Z,100927.81
2023-04-14T15:58:05.525Z,100926.69
2023-04-14T16:03:11.969Z,100929.22
2023-04-14T16:08:15.888Z,100938.91
2023-04-14T16:13:19.089Z,100930.31
2023-04-14T16:18:23.749Z,100932.97
2023-04-14T16:23:29.055Z,100938.19
2023-04-14T16:28:32.236Z,100945.78
2023-04-14T16:33:36.818Z,100943.75
2023-04-14T16:38:40.353Z,100947.75
2023-04-14T16:43:43.493Z,100939.81
2023-04-14T16:48:48.117Z,100945.91
2023-04-14T16:53:51.963Z,100949.44
2023-04-14T16:58:55.181Z,100941.63
2023-04-14T17:04:00.042Z,100953.25
2023-04-14T17:09:03.658Z,100953.09
2023-04-14T17:14:08.283Z,100955.69
2023-04-14T17:19:12.854Z,100961.06
2023-04-14T17:24:16.085Z,100962.72
2023-04-14T17:29:19.285Z,100963.25
2023-04-14T17:34:24.011Z,100959.81
2023-04-14T17:39:28.444Z,100966.69
2023-04-14T17:44:33.793Z,100966.06
2023-04-14T17:49:38.459Z,100977.66
2023-04-14T17:54:41.793Z,100978.47
2023-04-14T17:59:46.076Z,100986.44
2023-04-14T18:04:50.800Z,100992.53
2023-04-14T18:09:54.875Z,100994.28
2023-04-14T18:14:58.138Z,100994.50
2023-04-14T18:20:05.065Z,100999.19
2023-04-14T18:25:09.290Z,100991.13
2023-04-14T18:30:12.982Z,101012.44
2023-04-14T18:35:17.830Z,101001.19
2023-04-14T18:40:21.278Z,101001.44
2023-04-14T18:45:24.648Z,100994.41
2023-04-14T18:50:30.762Z,101009.41
2023-04-14T18:55:45.072Z,101008.31
2023-04-14T19:00:49.797Z,101016.50
2023-04-14T19:05:55.648Z,101014.72
2023-04-14T19:10:59.556Z,101025.34
2023-04-14T19:16:08.551Z,101024.53
2023-04-14T19:21:13.559Z,101024.31
2023-04-14T19:26:18.235Z,101028.91
2023-04-14T19:31:21.729Z,101033.34
2023-04-14T19:36:26.470Z,101045.28
2023-04-14T19:41:29.753Z,101045.28
2023-04-14T19:46:33.277Z,101050.00
2023-04-14T19:51:38.215Z,101065.16
2023-04-14T19:56:41.596Z,101068.75
2023-04-14T20:01:45.351Z,101080.34
2023-04-14T20:06:50.143Z,101088.78
2023-04-14T20:11:53.813Z,101085.44
2023-04-14T20:16:57.324Z,101085.91
2023-04-14T20:22:02.109Z,101101.91
2023-04-14T20:27:05.602Z,101101.19
2023-04-14T20:32:09.571Z,101110.25
2023-04-14T20:37:14.238Z,101116.63
2023-04-14T20:42:17.638Z,101125.22
2023-04-14T20:47:20.988Z,101128.53
2023-04-14T20:52:26.650Z,101133.00
2023-04-14T20:57:29.944Z,101134.91
2023-04-14T21:02:33.262Z,101137.09
2023-04-14T21:07:39.914Z,101149.47
2023-04-14T21:12:54.208Z,101144.59
2023-04-14T21:18:06.423Z,101150.94
2023-04-14T21:23:11.009Z,101153.91
2023-04-14T21:28:14.169Z,101159.56
2023-04-14T21:33:17.391Z,101165.41
2023-04-14T21:38:22.024Z,101168.81
2023-04-14T21:43:25.385Z,101155.41
2023-04-14T21:48:28.940Z,101158.50
2023-04-14T21:53:33.889Z,101161.13
2023-04-14T21:58:36.960Z,101165.91
2023-04-14T22:03:41.796Z,101160.63
2023-04-14T22:08:46.282Z,101171.59
2023-04-14T22:13:49.873Z,101174.84
2023-04-14T22:18:54.079Z,101176.63
2023-04-14T22:23:58.841Z,101180.34
2023-04-14T22:29:02.447Z,101185.38
2023-04-14T22:34:05.953Z,101182.06
2023-04-14T22:39:10.505Z,101187.13
2023-04-14T22:44:13.717Z,101190.06
2023-04-14T22:49:16.840Z,101182.84
2023-04-14T22:54:21.387Z,101179.53
2023-04-14T22:59:26.659Z,101184.03
2023-04-14T23:04:31.509Z,101178.53
2023-04-14T23:09:36.091Z,101186.81
2023-04-14T23:14:39.217Z,101189.34
2023-04-14T23:19:42.350Z,101199.78
2023-04-14T23:24:47.215Z,101206.03
2023-04-14T23:29:50.068Z,101209.06
2023-04-14T23:34:53.227Z,101207.56
2023-04-14T23:39:57.852Z,101205.88
2023-04-14T23:45:01.501Z,101220.13
2023-04-14T23:50:04.774Z,101216.38
2023-04-14T23:55:10.281Z,101210.16
